AIC9VJ VABB-VIDP
Flight info
| Callsign | AIC9VJ |
|---|---|
| Flight time | N/A |
| Altitude | 37000 |
| Route | ANOLI2A ISRIS Q1 UKASO UKASO6A |
| Aircraft | A320/M-SDE3FGHIRWY/LB1 |
Departure
| Time | 2026-05-06 08:00 |
|---|---|
| Airport | Chhatrapati Shivaji Maharaj International Airport (VABB) |
Arrival
| Time | N/A |
|---|---|
| Airport | Indira Gandhi International Airport (VIDP) |
| Time | Latitude | Longitude | Altitude | Speed | Heading |
|---|---|---|---|---|---|
| 2026-05-06 07:30 | 19.09626 | 72.87640 | 49 ft | 0 kts | 220° |
| 2026-05-06 07:48 | 19.09626 | 72.87639 | 49 ft | 0 kts | 220° |
| 2026-05-06 07:49 | 19.09630 | 72.87643 | 49 ft | 2 kts | 220° |
| 2026-05-06 07:49 | 19.09641 | 72.87653 | 77 ft | 2 kts | 220° |
| 2026-05-06 07:49 | 19.09654 | 72.87664 | 44 ft | 2 kts | 220° |
| 2026-05-06 07:49 | 19.09667 | 72.87676 | 47 ft | 2 kts | 224° |
| 2026-05-06 07:50 | 19.09675 | 72.87684 | 45 ft | 3 kts | 238° |
| 2026-05-06 07:50 | 19.09683 | 72.87700 | 48 ft | 2 kts | 241° |
| 2026-05-06 07:50 | 19.09691 | 72.87716 | 47 ft | 2 kts | 241° |
| 2026-05-06 07:50 | 19.09700 | 72.87731 | 47 ft | 1 kts | 241° |
| 2026-05-06 07:52 | 19.09698 | 72.87731 | 48 ft | 1 kts | 222° |
| 2026-05-06 07:52 | 19.09697 | 72.87731 | 48 ft | 0 kts | 217° |
| 2026-05-06 07:53 | 19.09693 | 72.87734 | 49 ft | 1 kts | 159° |
| 2026-05-06 07:53 | 19.09663 | 72.87766 | 49 ft | 6 kts | 128° |
| 2026-05-06 07:53 | 19.09636 | 72.87798 | 49 ft | 6 kts | 131° |
| 2026-05-06 07:53 | 19.09607 | 72.87833 | 49 ft | 6 kts | 131° |
| 2026-05-06 07:54 | 19.09574 | 72.87851 | 49 ft | 4 kts | 176° |
| 2026-05-06 07:54 | 19.09529 | 72.87835 | 49 ft | 12 kts | 206° |
| 2026-05-06 07:54 | 19.09453 | 72.87791 | 49 ft | 13 kts | 210° |
| 2026-05-06 07:54 | 19.09369 | 72.87742 | 49 ft | 14 kts | 205° |
| 2026-05-06 07:55 | 19.09294 | 72.87701 | 49 ft | 9 kts | 209° |
| 2026-05-06 07:55 | 19.09238 | 72.87674 | 49 ft | 8 kts | 195° |
| 2026-05-06 07:55 | 19.09190 | 72.87673 | 49 ft | 6 kts | 180° |
| 2026-05-06 07:55 | 19.09153 | 72.87653 | 49 ft | 8 kts | 231° |
| 2026-05-06 07:56 | 19.09143 | 72.87597 | 49 ft | 9 kts | 268° |
| 2026-05-06 07:56 | 19.09142 | 72.87521 | 49 ft | 11 kts | 268° |
| 2026-05-06 07:56 | 19.09103 | 72.87459 | 49 ft | 11 kts | 187° |
| 2026-05-06 07:56 | 19.09057 | 72.87498 | 49 ft | 9 kts | 108° |
| 2026-05-06 07:57 | 19.09054 | 72.87600 | 49 ft | 16 kts | 89° |
| 2026-05-06 07:57 | 19.09057 | 72.87711 | 49 ft | 15 kts | 88° |
| 2026-05-06 07:57 | 19.09059 | 72.87814 | 49 ft | 13 kts | 92° |
| 2026-05-06 07:57 | 19.09057 | 72.87907 | 49 ft | 12 kts | 91° |
| 2026-05-06 07:58 | 19.09060 | 72.87992 | 49 ft | 11 kts | 87° |
| 2026-05-06 07:58 | 19.09026 | 72.88047 | 48 ft | 9 kts | 164° |
| 2026-05-06 07:58 | 19.08945 | 72.88031 | 45 ft | 14 kts | 225° |
| 2026-05-06 07:58 | 19.08893 | 72.87938 | 48 ft | 15 kts | 250° |
| 2026-05-06 07:59 | 19.08885 | 72.87826 | 48 ft | 16 kts | 270° |
| 2026-05-06 07:59 | 19.08882 | 72.87578 | 48 ft | 65 kts | 267° |
| 2026-05-06 07:59 | 19.08871 | 72.86878 | 52 ft | 123 kts | 269° |
| 2026-05-06 07:59 | 19.08851 | 72.85837 | 140 ft | 150 kts | 268° |
| 2026-05-06 08:00 | 19.08824 | 72.84701 | 615 ft | 156 kts | 272° |
| 2026-05-06 08:00 | 19.08818 | 72.83585 | 1037 ft | 155 kts | 271° |
| 2026-05-06 08:00 | 19.08820 | 72.82216 | 1222 ft | 210 kts | 273° |
| 2026-05-06 08:00 | 19.08837 | 72.80650 | 2185 ft | 215 kts | 271° |
| 2026-05-06 08:01 | 19.08810 | 72.79108 | 3393 ft | 214 kts | 271° |
| 2026-05-06 08:01 | 19.08775 | 72.77501 | 4425 ft | 222 kts | 271° |
| 2026-05-06 08:01 | 19.08737 | 72.75847 | 5508 ft | 227 kts | 271° |
| 2026-05-06 08:01 | 19.08891 | 72.74198 | 6637 ft | 224 kts | 296° |
| 2026-05-06 08:02 | 19.09884 | 72.72922 | 7450 ft | 242 kts | 330° |
| 2026-05-06 08:02 | 19.11599 | 72.72433 | 7785 ft | 278 kts | 5° |
| 2026-05-06 08:02 | 19.13472 | 72.73056 | 7893 ft | 288 kts | 34° |
| 2026-05-06 08:02 | 19.15037 | 72.74368 | 7831 ft | 287 kts | 37° |
| 2026-05-06 08:03 | 19.16860 | 72.75175 | 7836 ft | 288 kts | 9° |
| 2026-05-06 08:03 | 19.18866 | 72.75246 | 7837 ft | 289 kts | 356° |
| 2026-05-06 08:03 | 19.20869 | 72.75011 | 7834 ft | 289 kts | 352° |
| 2026-05-06 08:03 | 19.22862 | 72.74703 | 7972 ft | 289 kts | 352° |
| 2026-05-06 08:04 | 19.24871 | 72.74421 | 8622 ft | 294 kts | 353° |
| 2026-05-06 08:04 | 19.26229 | 72.74261 | 9110 ft | 298 kts | 354° |
| 2026-05-06 08:04 | 19.28318 | 72.74060 | 9814 ft | 304 kts | 355° |
| 2026-05-06 08:04 | 19.30481 | 72.73992 | 10281 ft | 320 kts | 4° |
| 2026-05-06 08:05 | 19.32745 | 72.74303 | 10654 ft | 336 kts | 8° |
| 2026-05-06 08:05 | 19.35113 | 72.74678 | 11039 ft | 351 kts | 8° |
| 2026-05-06 08:05 | 19.37543 | 72.75061 | 11687 ft | 355 kts | 8° |
| 2026-05-06 08:05 | 19.39989 | 72.75445 | 12467 ft | 355 kts | 7° |
| 2026-05-06 08:06 | 19.42438 | 72.75824 | 13265 ft | 356 kts | 7° |
| 2026-05-06 08:06 | 19.44891 | 72.76202 | 13991 ft | 356 kts | 7° |
| 2026-05-06 08:06 | 19.47355 | 72.76579 | 14637 ft | 358 kts | 7° |
| 2026-05-06 08:06 | 19.49826 | 72.76958 | 15255 ft | 360 kts | 7° |
| 2026-05-06 08:07 | 19.52315 | 72.77342 | 15845 ft | 363 kts | 7° |
| 2026-05-06 08:07 | 19.54828 | 72.77730 | 16417 ft | 366 kts | 8° |
| 2026-05-06 08:07 | 19.57358 | 72.78118 | 16977 ft | 369 kts | 8° |
| 2026-05-06 08:07 | 19.59913 | 72.78511 | 17528 ft | 372 kts | 8° |
| 2026-05-06 08:08 | 19.62494 | 72.78908 | 18089 ft | 375 kts | 8° |
| 2026-05-06 08:08 | 19.65087 | 72.79305 | 18559 ft | 378 kts | 7° |
| 2026-05-06 08:08 | 19.67706 | 72.79706 | 19023 ft | 381 kts | 7° |
| 2026-05-06 08:08 | 19.70338 | 72.80111 | 19482 ft | 384 kts | 7° |
| 2026-05-06 08:09 | 19.72996 | 72.80519 | 19954 ft | 387 kts | 7° |
| 2026-05-06 08:09 | 19.75629 | 72.80923 | 20416 ft | 389 kts | 7° |
| 2026-05-06 08:09 | 19.78317 | 72.81338 | 20905 ft | 392 kts | 6° |
| 2026-05-06 08:09 | 19.81031 | 72.81757 | 21381 ft | 394 kts | 6° |
| 2026-05-06 08:10 | 19.83753 | 72.82181 | 21853 ft | 396 kts | 6° |
| 2026-05-06 08:10 | 19.86497 | 72.82607 | 22293 ft | 399 kts | 6° |
| 2026-05-06 08:10 | 19.89251 | 72.83032 | 22751 ft | 401 kts | 5° |
| 2026-05-06 08:10 | 19.92021 | 72.83459 | 23180 ft | 403 kts | 6° |
| 2026-05-06 08:11 | 19.94810 | 72.83891 | 23569 ft | 406 kts | 5° |
| 2026-05-06 08:11 | 19.97612 | 72.84326 | 23914 ft | 408 kts | 5° |
| 2026-05-06 08:11 | 20.00433 | 72.84764 | 24252 ft | 410 kts | 5° |
| 2026-05-06 08:11 | 20.03269 | 72.85205 | 24584 ft | 413 kts | 5° |
| 2026-05-06 08:12 | 20.06080 | 72.85641 | 24893 ft | 415 kts | 5° |
| 2026-05-06 08:12 | 20.08946 | 72.86079 | 25205 ft | 417 kts | 5° |
| 2026-05-06 08:12 | 20.11838 | 72.86488 | 25523 ft | 419 kts | 4° |
| 2026-05-06 08:12 | 20.14634 | 72.86850 | 25817 ft | 421 kts | 4° |
| 2026-05-06 08:13 | 20.17548 | 72.87210 | 26121 ft | 423 kts | 3° |
| 2026-05-06 08:13 | 20.20479 | 72.87567 | 26414 ft | 425 kts | 3° |
| 2026-05-06 08:13 | 20.23416 | 72.87927 | 26709 ft | 427 kts | 4° |
| 2026-05-06 08:13 | 20.26392 | 72.88297 | 26987 ft | 429 kts | 4° |
| 2026-05-06 08:14 | 20.29352 | 72.88668 | 27269 ft | 431 kts | 4° |
| 2026-05-06 08:14 | 20.32345 | 72.89048 | 27548 ft | 433 kts | 4° |
| 2026-05-06 08:14 | 20.35348 | 72.89433 | 27822 ft | 435 kts | 4° |
| 2026-05-06 08:14 | 20.38357 | 72.89821 | 28095 ft | 437 kts | 4° |
| 2026-05-06 08:15 | 20.41375 | 72.90213 | 28367 ft | 439 kts | 4° |
| 2026-05-06 08:15 | 20.44416 | 72.90608 | 28638 ft | 440 kts | 4° |
| 2026-05-06 08:15 | 20.47462 | 72.91000 | 28898 ft | 442 kts | 3° |
| 2026-05-06 08:15 | 20.50518 | 72.91391 | 29156 ft | 443 kts | 3° |
| 2026-05-06 08:16 | 20.53591 | 72.91781 | 29406 ft | 445 kts | 3° |
| 2026-05-06 08:16 | 20.56670 | 72.92174 | 29653 ft | 446 kts | 3° |
| 2026-05-06 08:16 | 20.59760 | 72.92569 | 29894 ft | 448 kts | 3° |
| 2026-05-06 08:16 | 20.62820 | 72.92961 | 30094 ft | 449 kts | 3° |
| 2026-05-06 08:17 | 20.65927 | 72.93360 | 30287 ft | 451 kts | 3° |
| 2026-05-06 08:17 | 20.69044 | 72.93762 | 30466 ft | 452 kts | 3° |
| 2026-05-06 08:17 | 20.72175 | 72.94166 | 30641 ft | 453 kts | 3° |
| 2026-05-06 08:17 | 20.75315 | 72.94570 | 30809 ft | 454 kts | 3° |
| 2026-05-06 08:18 | 20.78455 | 72.94879 | 30984 ft | 454 kts | 0° |
| 2026-05-06 08:18 | 20.81624 | 72.95053 | 31140 ft | 455 kts | 359° |
| 2026-05-06 08:18 | 20.84774 | 72.95135 | 31321 ft | 455 kts | 358° |
| 2026-05-06 08:18 | 20.87936 | 72.95178 | 31547 ft | 454 kts | 357° |
| 2026-05-06 08:19 | 20.91098 | 72.95225 | 31786 ft | 454 kts | 358° |
| 2026-05-06 08:19 | 20.94258 | 72.95294 | 32012 ft | 454 kts | 358° |
| 2026-05-06 08:19 | 20.97410 | 72.95389 | 32236 ft | 454 kts | 358° |
| 2026-05-06 08:19 | 21.00578 | 72.95506 | 32454 ft | 454 kts | 359° |
| 2026-05-06 08:20 | 21.03734 | 72.95635 | 32677 ft | 454 kts | 359° |
| 2026-05-06 08:20 | 21.06851 | 72.95765 | 32893 ft | 454 kts | 359° |
| 2026-05-06 08:20 | 21.10008 | 72.95892 | 33124 ft | 454 kts | 358° |
| 2026-05-06 08:20 | 21.13165 | 72.96009 | 33329 ft | 454 kts | 358° |
| 2026-05-06 08:21 | 21.16330 | 72.96147 | 33565 ft | 455 kts | 1° |
| 2026-05-06 08:21 | 21.19467 | 72.96693 | 33811 ft | 460 kts | 11° |
| 2026-05-06 08:21 | 21.22530 | 72.97760 | 34005 ft | 463 kts | 16° |
| 2026-05-06 08:21 | 21.25557 | 72.98937 | 34175 ft | 464 kts | 16° |
| 2026-05-06 08:22 | 21.28596 | 73.00118 | 34353 ft | 464 kts | 16° |
| 2026-05-06 08:22 | 21.31636 | 73.01293 | 34542 ft | 464 kts | 15° |
| 2026-05-06 08:22 | 21.34633 | 73.02450 | 34718 ft | 464 kts | 15° |
| 2026-05-06 08:22 | 21.37674 | 73.03622 | 34894 ft | 464 kts | 15° |
| 2026-05-06 08:23 | 21.40712 | 73.04788 | 35070 ft | 464 kts | 15° |
| 2026-05-06 08:23 | 21.43755 | 73.05960 | 35243 ft | 464 kts | 15° |
| 2026-05-06 08:23 | 21.46790 | 73.07132 | 35415 ft | 464 kts | 15° |
| 2026-05-06 08:23 | 21.49824 | 73.08305 | 35577 ft | 464 kts | 15° |
| 2026-05-06 08:24 | 21.52856 | 73.09480 | 35738 ft | 464 kts | 15° |
| 2026-05-06 08:24 | 21.55898 | 73.10656 | 35900 ft | 464 kts | 15° |
| 2026-05-06 08:24 | 21.58939 | 73.11831 | 36058 ft | 463 kts | 15° |
| 2026-05-06 08:24 | 21.61968 | 73.13001 | 36216 ft | 463 kts | 15° |
| 2026-05-06 08:25 | 21.65000 | 73.14174 | 36357 ft | 464 kts | 15° |
| 2026-05-06 08:25 | 21.68040 | 73.15354 | 36512 ft | 463 kts | 15° |
| 2026-05-06 08:25 | 21.71074 | 73.16533 | 36664 ft | 463 kts | 15° |
| 2026-05-06 08:25 | 21.74109 | 73.17712 | 36794 ft | 463 kts | 15° |
| 2026-05-06 08:26 | 21.80156 | 73.20056 | 36816 ft | 461 kts | 15° |
| 2026-05-06 08:26 | 21.86185 | 73.22399 | 36813 ft | 461 kts | 15° |
| 2026-05-06 08:27 | 21.92177 | 73.24738 | 36809 ft | 460 kts | 15° |
| 2026-05-06 08:27 | 21.98186 | 73.27071 | 36809 ft | 460 kts | 14° |
| 2026-05-06 08:28 | 22.04222 | 73.29416 | 36813 ft | 460 kts | 14° |
| 2026-05-06 08:28 | 22.10235 | 73.31764 | 36821 ft | 460 kts | 14° |
| 2026-05-06 08:29 | 22.16250 | 73.34113 | 36825 ft | 459 kts | 14° |
| 2026-05-06 08:29 | 22.22263 | 73.36458 | 36826 ft | 459 kts | 14° |
| 2026-05-06 08:30 | 22.28275 | 73.38806 | 36827 ft | 459 kts | 14° |
| 2026-05-06 08:30 | 22.34235 | 73.41144 | 36822 ft | 459 kts | 14° |
| 2026-05-06 08:31 | 22.40243 | 73.43506 | 36826 ft | 458 kts | 14° |
| 2026-05-06 08:31 | 22.46238 | 73.45852 | 36815 ft | 458 kts | 14° |
| 2026-05-06 08:32 | 22.52228 | 73.48197 | 36811 ft | 458 kts | 14° |
| 2026-05-06 08:32 | 22.58218 | 73.50555 | 36813 ft | 458 kts | 14° |
| 2026-05-06 08:33 | 22.64206 | 73.52916 | 36813 ft | 458 kts | 14° |
| 2026-05-06 08:33 | 22.70162 | 73.55256 | 36819 ft | 458 kts | 14° |
| 2026-05-06 08:34 | 22.79158 | 73.58794 | 36823 ft | 458 kts | 14° |
| 2026-05-06 08:35 | 22.85139 | 73.61154 | 36827 ft | 458 kts | 14° |
| 2026-05-06 08:35 | 22.91015 | 73.63478 | 36838 ft | 458 kts | 14° |
| 2026-05-06 08:36 | 22.96996 | 73.65841 | 36843 ft | 458 kts | 14° |
| 2026-05-06 08:36 | 23.02983 | 73.68207 | 36833 ft | 458 kts | 14° |
| 2026-05-06 08:37 | 23.08978 | 73.70581 | 36839 ft | 458 kts | 13° |
| 2026-05-06 08:37 | 23.14963 | 73.72954 | 36840 ft | 458 kts | 13° |
| 2026-05-06 08:38 | 23.20906 | 73.75304 | 36842 ft | 457 kts | 13° |
| 2026-05-06 08:38 | 23.26887 | 73.77675 | 36857 ft | 457 kts | 13° |
| 2026-05-06 08:39 | 23.32899 | 73.80073 | 36853 ft | 457 kts | 13° |
| 2026-05-06 08:39 | 23.38830 | 73.82442 | 36845 ft | 457 kts | 13° |
| 2026-05-06 08:40 | 23.44804 | 73.84814 | 36850 ft | 457 kts | 13° |
| 2026-05-06 08:40 | 23.50771 | 73.87191 | 36856 ft | 457 kts | 13° |
| 2026-05-06 08:41 | 23.56746 | 73.89579 | 36860 ft | 456 kts | 13° |
| 2026-05-06 08:41 | 23.62708 | 73.91959 | 36865 ft | 457 kts | 13° |
| 2026-05-06 08:42 | 23.68675 | 73.94344 | 36871 ft | 456 kts | 13° |
| 2026-05-06 08:42 | 23.74642 | 73.96729 | 36876 ft | 456 kts | 13° |
| 2026-05-06 08:43 | 23.80603 | 73.99114 | 36879 ft | 456 kts | 13° |
| 2026-05-06 08:43 | 23.86557 | 74.01502 | 36885 ft | 456 kts | 13° |
| 2026-05-06 08:44 | 23.92509 | 74.03890 | 36892 ft | 456 kts | 13° |
| 2026-05-06 08:44 | 23.98467 | 74.06286 | 36894 ft | 455 kts | 13° |
| 2026-05-06 08:45 | 24.04375 | 74.08664 | 36896 ft | 455 kts | 13° |
| 2026-05-06 08:45 | 24.10321 | 74.11046 | 36904 ft | 454 kts | 12° |
| 2026-05-06 08:46 | 24.16253 | 74.13426 | 36905 ft | 454 kts | 12° |
| 2026-05-06 08:46 | 24.22194 | 74.15809 | 36908 ft | 454 kts | 12° |
| 2026-05-06 08:47 | 24.28128 | 74.18204 | 36908 ft | 454 kts | 12° |
| 2026-05-06 08:47 | 24.34064 | 74.20604 | 36909 ft | 454 kts | 12° |
| 2026-05-06 08:48 | 24.39996 | 74.23006 | 36910 ft | 454 kts | 12° |
| 2026-05-06 08:48 | 24.45929 | 74.25404 | 36909 ft | 454 kts | 12° |
| 2026-05-06 08:49 | 24.50856 | 74.27402 | 36906 ft | 454 kts | 12° |
| 2026-05-06 08:49 | 24.56781 | 74.29809 | 36902 ft | 454 kts | 12° |
| 2026-05-06 08:50 | 24.63702 | 74.32618 | 36900 ft | 454 kts | 12° |
| 2026-05-06 08:50 | 24.68634 | 74.34623 | 36900 ft | 454 kts | 12° |
| 2026-05-06 08:51 | 24.74559 | 74.37040 | 36904 ft | 454 kts | 12° |
| 2026-05-06 08:51 | 24.80489 | 74.39446 | 36898 ft | 454 kts | 12° |
| 2026-05-06 08:52 | 24.86369 | 74.41838 | 36888 ft | 454 kts | 12° |
| 2026-05-06 08:52 | 24.92336 | 74.44275 | 36890 ft | 454 kts | 12° |
| 2026-05-06 08:53 | 24.98259 | 74.46693 | 36898 ft | 454 kts | 12° |
| 2026-05-06 08:53 | 25.04177 | 74.49110 | 36891 ft | 453 kts | 12° |
| 2026-05-06 08:54 | 25.10097 | 74.51533 | 36886 ft | 454 kts | 12° |
| 2026-05-06 08:54 | 25.16006 | 74.53962 | 36891 ft | 453 kts | 12° |
| 2026-05-06 08:55 | 25.21881 | 74.56383 | 36890 ft | 453 kts | 12° |
| 2026-05-06 08:55 | 25.27825 | 74.58831 | 36894 ft | 453 kts | 12° |
| 2026-05-06 08:56 | 25.33703 | 74.61253 | 36885 ft | 453 kts | 12° |
| 2026-05-06 08:56 | 25.39602 | 74.63691 | 36888 ft | 453 kts | 12° |
| 2026-05-06 08:57 | 25.45513 | 74.66141 | 36889 ft | 453 kts | 12° |
| 2026-05-06 08:57 | 25.51425 | 74.68582 | 36889 ft | 453 kts | 12° |
| 2026-05-06 08:58 | 25.57328 | 74.71024 | 36889 ft | 453 kts | 12° |
| 2026-05-06 08:58 | 25.63228 | 74.73467 | 36887 ft | 453 kts | 12° |
| 2026-05-06 08:59 | 25.69127 | 74.75919 | 36883 ft | 453 kts | 12° |
| 2026-05-06 08:59 | 25.75022 | 74.78369 | 36886 ft | 452 kts | 12° |
| 2026-05-06 09:00 | 25.80916 | 74.80817 | 36883 ft | 452 kts | 12° |
| 2026-05-06 09:00 | 25.86812 | 74.83263 | 36884 ft | 452 kts | 12° |
| 2026-05-06 09:01 | 25.92706 | 74.85718 | 36886 ft | 452 kts | 12° |
| 2026-05-06 09:01 | 25.98595 | 74.88183 | 36882 ft | 452 kts | 12° |
| 2026-05-06 09:02 | 26.04487 | 74.90652 | 36885 ft | 452 kts | 12° |
| 2026-05-06 09:02 | 26.10375 | 74.93112 | 36881 ft | 452 kts | 12° |
| 2026-05-06 09:03 | 26.16262 | 74.95568 | 36883 ft | 452 kts | 12° |
| 2026-05-06 09:03 | 26.22142 | 74.98029 | 36884 ft | 451 kts | 12° |
| 2026-05-06 09:04 | 26.28020 | 75.00483 | 36884 ft | 451 kts | 12° |
| 2026-05-06 09:04 | 26.33896 | 75.02936 | 36889 ft | 451 kts | 12° |
| 2026-05-06 09:05 | 26.39771 | 75.05393 | 36891 ft | 451 kts | 12° |
| 2026-05-06 09:05 | 26.45646 | 75.07857 | 36892 ft | 450 kts | 12° |
| 2026-05-06 09:06 | 26.51509 | 75.10316 | 36892 ft | 450 kts | 12° |
| 2026-05-06 09:06 | 26.57376 | 75.12776 | 36893 ft | 450 kts | 12° |
| 2026-05-06 09:07 | 26.63241 | 75.15231 | 36893 ft | 450 kts | 12° |
| 2026-05-06 09:07 | 26.69063 | 75.17678 | 36886 ft | 450 kts | 12° |
| 2026-05-06 09:08 | 26.74917 | 75.20142 | 36884 ft | 449 kts | 12° |
| 2026-05-06 09:08 | 26.80773 | 75.22603 | 36883 ft | 449 kts | 12° |
| 2026-05-06 09:09 | 26.86625 | 75.25066 | 36881 ft | 449 kts | 12° |
| 2026-05-06 09:09 | 26.92476 | 75.27531 | 36880 ft | 449 kts | 12° |
| 2026-05-06 09:10 | 26.98318 | 75.30000 | 36881 ft | 449 kts | 12° |
| 2026-05-06 09:10 | 27.04161 | 75.32469 | 36880 ft | 449 kts | 12° |
| 2026-05-06 09:11 | 27.10000 | 75.34935 | 36878 ft | 448 kts | 13° |
| 2026-05-06 09:11 | 27.15836 | 75.37402 | 36880 ft | 448 kts | 13° |
| 2026-05-06 09:12 | 27.21552 | 75.40309 | 36869 ft | 461 kts | 25° |
| 2026-05-06 09:12 | 27.24127 | 75.42541 | 36865 ft | 472 kts | 36° |
| 2026-05-06 09:12 | 27.26481 | 75.45138 | 36871 ft | 474 kts | 37° |
| 2026-05-06 09:13 | 27.31174 | 75.50348 | 36875 ft | 474 kts | 37° |
| 2026-05-06 09:13 | 27.35889 | 75.55547 | 36870 ft | 474 kts | 37° |
| 2026-05-06 09:14 | 27.40606 | 75.60730 | 36866 ft | 474 kts | 37° |
| 2026-05-06 09:14 | 27.45324 | 75.65929 | 36868 ft | 474 kts | 37° |
| 2026-05-06 09:15 | 27.49996 | 75.71108 | 36874 ft | 475 kts | 37° |
| 2026-05-06 09:15 | 27.54697 | 75.76340 | 36871 ft | 475 kts | 37° |
| 2026-05-06 09:16 | 27.59391 | 75.81571 | 36873 ft | 474 kts | 37° |
| 2026-05-06 09:16 | 27.64493 | 75.86085 | 36868 ft | 457 kts | 20° |
| 2026-05-06 09:17 | 27.70303 | 75.88615 | 36662 ft | 445 kts | 8° |
| 2026-05-06 09:17 | 27.73275 | 75.89607 | 36411 ft | 445 kts | 9° |
| 2026-05-06 09:17 | 27.76241 | 75.90606 | 36173 ft | 445 kts | 9° |
| 2026-05-06 09:17 | 27.79211 | 75.91611 | 35939 ft | 445 kts | 9° |
| 2026-05-06 09:18 | 27.82182 | 75.92617 | 35704 ft | 445 kts | 9° |
| 2026-05-06 09:18 | 27.85145 | 75.93619 | 35357 ft | 444 kts | 8° |
| 2026-05-06 09:18 | 27.88107 | 75.94620 | 34712 ft | 444 kts | 8° |
| 2026-05-06 09:18 | 27.91068 | 75.95618 | 33981 ft | 444 kts | 8° |
| 2026-05-06 09:19 | 27.94021 | 75.96614 | 33335 ft | 440 kts | 9° |
| 2026-05-06 09:19 | 27.96906 | 75.97593 | 32784 ft | 434 kts | 9° |
| 2026-05-06 09:19 | 27.99780 | 75.98571 | 32222 ft | 429 kts | 9° |
| 2026-05-06 09:19 | 28.02626 | 75.99538 | 31672 ft | 424 kts | 9° |
| 2026-05-06 09:20 | 28.05435 | 76.00492 | 31131 ft | 419 kts | 9° |
| 2026-05-06 09:20 | 28.08215 | 76.01434 | 30613 ft | 415 kts | 10° |
| 2026-05-06 09:20 | 28.10966 | 76.02366 | 30108 ft | 411 kts | 10° |
| 2026-05-06 09:20 | 28.13690 | 76.03288 | 29553 ft | 406 kts | 10° |
| 2026-05-06 09:21 | 28.16381 | 76.04197 | 28979 ft | 402 kts | 10° |
| 2026-05-06 09:21 | 28.19031 | 76.05176 | 28434 ft | 401 kts | 17° |
| 2026-05-06 09:21 | 28.21438 | 76.06739 | 28271 ft | 398 kts | 30° |
| 2026-05-06 09:21 | 28.23462 | 76.08864 | 28091 ft | 396 kts | 43° |
| 2026-05-06 09:22 | 28.25017 | 76.11446 | 27716 ft | 400 kts | 56° |
| 2026-05-06 09:22 | 28.26272 | 76.14257 | 27256 ft | 398 kts | 57° |
| 2026-05-06 09:22 | 28.27507 | 76.17058 | 26797 ft | 395 kts | 57° |
| 2026-05-06 09:22 | 28.28730 | 76.19839 | 26354 ft | 392 kts | 57° |
| 2026-05-06 09:23 | 28.29943 | 76.22597 | 25918 ft | 388 kts | 57° |
| 2026-05-06 09:23 | 28.31145 | 76.25331 | 25488 ft | 385 kts | 57° |
| 2026-05-06 09:23 | 28.32339 | 76.28039 | 25059 ft | 382 kts | 56° |
| 2026-05-06 09:23 | 28.33528 | 76.30728 | 24535 ft | 381 kts | 57° |
| 2026-05-06 09:24 | 28.34721 | 76.33415 | 24029 ft | 381 kts | 57° |
| 2026-05-06 09:24 | 28.35891 | 76.36052 | 23593 ft | 378 kts | 57° |
| 2026-05-06 09:24 | 28.37067 | 76.38711 | 23132 ft | 376 kts | 57° |
| 2026-05-06 09:24 | 28.38233 | 76.41358 | 22619 ft | 373 kts | 57° |
| 2026-05-06 09:25 | 28.39389 | 76.43986 | 22147 ft | 370 kts | 57° |
| 2026-05-06 09:25 | 28.40533 | 76.46587 | 21688 ft | 367 kts | 58° |
| 2026-05-06 09:25 | 28.41667 | 76.49177 | 21231 ft | 365 kts | 58° |
| 2026-05-06 09:25 | 28.42793 | 76.51748 | 20783 ft | 362 kts | 58° |
| 2026-05-06 09:26 | 28.43912 | 76.54300 | 20351 ft | 360 kts | 58° |
| 2026-05-06 09:26 | 28.45030 | 76.56848 | 19924 ft | 357 kts | 58° |
| 2026-05-06 09:26 | 28.46137 | 76.59366 | 19495 ft | 355 kts | 58° |
| 2026-05-06 09:26 | 28.47238 | 76.61871 | 19096 ft | 353 kts | 58° |
| 2026-05-06 09:27 | 28.48328 | 76.64361 | 18699 ft | 351 kts | 59° |
| 2026-05-06 09:27 | 28.49412 | 76.66841 | 18306 ft | 349 kts | 59° |
| 2026-05-06 09:27 | 28.50490 | 76.69304 | 17824 ft | 348 kts | 59° |
| 2026-05-06 09:27 | 28.51393 | 76.71882 | 17185 ft | 356 kts | 73° |